Time;durP1;ratioP1;P1;durP2;ratioP2;P2;SDS_P1;SDS_P2;PMS_P1;PMS_P2;Temp;Humidity;BMP_temperature;BMP_pressure;BME280_temperature;BME280_humidity;BME280_pressure;Samples;Min_cycle;Max_cycle;Signal;HPM_P1;HPM_P2
2021/04/21 00:01:04;;;;;;;19.80;13.18;;;;;;;;;;5002294;28;20021;-85
2021/04/21 00:03:30;;;;;;;26.58;15.27;;;;;;;;;;5014086;28;20021;-86
2021/04/21 00:05:55;;;;;;;25.77;15.10;;;;;;;;;;5029037;28;20029;-83
2021/04/21 00:08:21;;;;;;;25.15;15.07;;;;;;;;;;5046762;22;20544;-63
2021/04/21 00:10:47;;;;;;;30.00;15.07;;;;;;;;;;5077012;28;20025;-63
2021/04/21 00:13:13;;;;;;;25.80;14.57;;;;;;;;;;5072426;28;20092;-64
2021/04/21 00:15:38;;;;;;;26.23;14.98;;;;;;;;;;5068692;28;20308;-64
2021/04/21 00:18:04;;;;;;;29.27;16.48;;;;;;;;;;5071253;28;20374;-62
2021/04/21 00:20:30;;;;;;;25.88;15.80;;;;;;;;;;5072575;28;20017;-63
2021/04/21 00:22:57;;;;;;;33.17;16.13;;;;;;;;;;5072961;28;20524;-63
2021/04/21 00:25:22;;;;;;;30.10;15.18;;;;;;;;;;5072236;28;20112;-63
2021/04/21 00:27:49;;;;;;;26.65;15.40;;;;;;;;;;5072240;28;20167;-63
2021/04/21 00:30:15;;;;;;;30.13;15.23;;;;;;;;;;5071988;28;20488;-63
2021/04/21 00:32:42;;;;;;;25.33;15.50;;;;;;;;;;5071908;28;20039;-63
2021/04/21 00:35:08;;;;;;;38.00;16.70;;;;;;;;;;5072329;28;20151;-63
2021/04/21 00:37:33;;;;;;;28.52;17.10;;;;;;;;;;5072350;28;20084;-63
2021/04/21 00:39:59;;;;;;;25.40;15.77;;;;;;;;;;5053993;28;20032;-63
2021/04/21 00:42:43;;;;;;;27.58;15.90;;;;;;;;;;5072243;28;20065;-63
2021/04/21 00:45:17;;;;;;;27.95;17.20;;;;;;;;;;5066812;28;20024;-63
2021/04/21 00:47:45;;;;;;;28.60;16.35;;;;;;;;;;5071975;28;20044;-63
2021/04/21 00:50:14;;;;;;;31.27;15.05;;;;;;;;;;5071820;28;20029;-63
2021/04/21 00:52:47;;;;;;;26.90;15.88;;;;;;;;;;5071669;28;20040;-63
2021/04/21 00:55:12;;;;;;;26.17;15.48;;;;;;;;;;5071792;28;20020;-63
2021/04/21 00:57:53;;;;;;;29.58;16.48;;;;;;;;;;5071881;28;20016;-63
2021/04/21 01:00:20;;;;;;;29.27;16.10;;;;;;;;;;5070350;28;20270;-63
2021/04/21 01:02:52;;;;;;;33.30;16.00;;;;;;;;;;5072074;28;20070;-63
2021/04/21 01:05:20;;;;;;;30.45;16.27;;;;;;;;;;5071119;28;20115;-63
2021/04/21 01:07:46;;;;;;;34.35;16.10;;;;;;;;;;5070878;28;20013;-63
2021/04/21 01:10:13;;;;;;;28.80;16.90;;;;;;;;;;5071656;28;20040;-63
2021/04/21 01:12:39;;;;;;;27.75;16.63;;;;;;;;;;5071705;28;20016;-63
2021/04/21 01:15:06;;;;;;;26.85;15.98;;;;;;;;;;5071813;28;20032;-63
2021/04/21 01:17:31;;;;;;;33.65;18.85;;;;;;;;;;5065059;28;20021;-63
2021/04/21 01:19:59;;;;;;;31.52;16.88;;;;;;;;;;5061426;28;20377;-63
2021/04/21 01:22:29;;;;;;;26.55;15.70;;;;;;;;;;5071404;28;20012;-63
2021/04/21 01:25:06;;;;;;;31.38;16.58;;;;;;;;;;5071076;28;20024;-63
2021/04/21 01:27:43;;;;;;;32.80;16.73;;;;;;;;;;5051906;28;20485;-63
2021/04/21 01:30:08;;;;;;;30.25;16.92;;;;;;;;;;5070596;28;20029;-63
2021/04/21 01:32:34;;;;;;;29.75;17.52;;;;;;;;;;5070797;28;20380;-63
2021/04/21 01:35:00;;;;;;;31.17;18.52;;;;;;;;;;5063131;28;20106;-63
2021/04/21 01:37:32;;;;;;;32.30;17.73;;;;;;;;;;5071447;28;20025;-63
2021/04/21 01:40:00;;;;;;;32.75;17.73;;;;;;;;;;5070331;28;20025;-63
2021/04/21 01:42:27;;;;;;;29.83;17.55;;;;;;;;;;5071441;28;20031;-63
2021/04/21 01:44:52;;;;;;;31.27;17.42;;;;;;;;;;5061234;28;20021;-63
2021/04/21 01:47:22;;;;;;;33.72;18.50;;;;;;;;;;5068254;28;20039;-63
2021/04/21 01:49:50;;;;;;;31.75;18.05;;;;;;;;;;5060814;28;20031;-63
2021/04/21 01:52:21;;;;;;;28.90;17.45;;;;;;;;;;5070777;28;20171;-63
2021/04/21 01:54:48;;;;;;;38.50;18.45;;;;;;;;;;5070897;28;20013;-63
2021/04/21 01:57:19;;;;;;;34.53;18.67;;;;;;;;;;5069706;28;20406;-63
2021/04/21 01:59:47;;;;;;;34.55;19.52;;;;;;;;;;5060009;28;20032;-63
2021/04/21 02:02:17;;;;;;;29.75;17.70;;;;;;;;;;5068860;28;20495;-63
2021/04/21 02:04:49;;;;;;;30.13;19.13;;;;;;;;;;5070714;28;20031;-63
2021/04/21 02:07:37;;;;;;;36.92;17.98;;;;;;;;;;5069659;28;20677;-63
2021/04/21 02:10:05;;;;;;;31.45;18.45;;;;;;;;;;5045021;28;20045;-63
2021/04/21 02:12:30;;;;;;;35.55;18.42;;;;;;;;;;5069152;28;20371;-63
2021/04/21 02:15:05;;;;;;;33.83;18.60;;;;;;;;;;5070539;28;20021;-63
2021/04/21 02:17:42;;;;;;;32.38;18.27;;;;;;;;;;5067229;28;20264;-63
2021/04/21 02:20:31;;;;;;;30.73;17.98;;;;;;;;;;5069166;28;20078;-63
2021/04/21 02:23:07;;;;;;;30.25;17.75;;;;;;;;;;5062214;28;20485;-63
2021/04/21 02:25:50;;;;;;;31.83;18.80;;;;;;;;;;5069950;28;20107;-63
2021/04/21 02:28:19;;;;;;;32.88;19.80;;;;;;;;;;5070099;28;20091;-63
2021/04/21 02:30:58;;;;;;;33.88;19.90;;;;;;;;;;5058162;28;20025;-63
2021/04/21 02:33:23;;;;;;;33.90;20.48;;;;;;;;;;5062998;28;20103;-63
2021/04/21 02:35:49;;;;;;;52.80;20.95;;;;;;;;;;5069558;28;20126;-62
2021/04/21 02:38:33;;;;;;;29.75;19.23;;;;;;;;;;5069622;28;20750;-62
2021/04/21 02:41:05;;;;;;;35.58;20.83;;;;;;;;;;5068650;28;20024;-62
2021/04/21 02:43:39;;;;;;;35.85;21.05;;;;;;;;;;5069042;28;20055;-63
2021/04/21 02:46:09;;;;;;;36.03;21.42;;;;;;;;;;5069631;28;20412;-63
2021/04/21 02:48:59;;;;;;;36.05;20.27;;;;;;;;;;5069812;28;20091;-63
2021/04/21 02:51:24;;;;;;;37.92;20.10;;;;;;;;;;5069965;28;20089;-63
2021/04/21 02:54:06;;;;;;;33.95;19.40;;;;;;;;;;5069765;28;20061;-63
2021/04/21 02:56:41;;;;;;;36.05;20.70;;;;;;;;;;5070183;28;20611;-63
2021/04/21 02:59:09;;;;;;;33.78;20.70;;;;;;;;;;5068845;28;20021;-63
2021/04/21 03:01:40;;;;;;;34.78;20.25;;;;;;;;;;5069249;28;20020;-63
2021/04/21 03:04:17;;;;;;;35.95;19.10;;;;;;;;;;5066404;28;20101;-63
2021/04/21 03:06:48;;;;;;;33.30;19.67;;;;;;;;;;5070048;28;20040;-63
2021/04/21 03:09:15;;;;;;;39.45;20.83;;;;;;;;;;5069541;28;20419;-63
2021/04/21 03:11:41;;;;;;;35.45;21.25;;;;;;;;;;5066054;28;20074;-63
2021/04/21 03:14:13;;;;;;;40.35;20.75;;;;;;;;;;5069210;28;20024;-63
2021/04/21 03:16:39;;;;;;;39.50;21.77;;;;;;;;;;5070094;28;20241;-63
2021/04/21 03:19:06;;;;;;;41.13;22.55;;;;;;;;;;5068490;28;20024;-63
2021/04/21 03:21:42;;;;;;;49.20;24.85;;;;;;;;;;5069398;28;20029;-63
2021/04/21 03:24:18;;;;;;;41.58;24.70;;;;;;;;;;5069800;28;20029;-63
2021/04/21 03:26:45;;;;;;;40.20;23.05;;;;;;;;;;5069701;28;20579;-62
2021/04/21 03:29:13;;;;;;;40.78;23.45;;;;;;;;;;5069564;28;20032;-62
2021/04/21 03:31:39;;;;;;;34.55;21.52;;;;;;;;;;5072250;28;20492;-62
2021/04/21 03:34:09;;;;;;;39.55;22.35;;;;;;;;;;5073599;28;20510;-62
2021/04/21 03:36:34;;;;;;;;;;;;;;;;;;5072834;28;20020;-62
2021/04/21 03:39:00;;;;;;;40.50;21.47;;;;;;;;;;5065282;28;19913;-62
2021/04/21 03:41:25;;;;;;;49.63;24.23;;;;;;;;;;5073104;28;20350;-62
2021/04/21 03:43:50;;;;;;;41.15;23.13;;;;;;;;;;5073388;28;20031;-63
2021/04/21 03:46:16;;;;;;;39.35;22.58;;;;;;;;;;5072885;28;20035;-63
2021/04/21 03:48:42;;;;;;;40.92;21.52;;;;;;;;;;5073552;28;20024;-63
2021/04/21 03:51:07;;;;;;;49.03;24.45;;;;;;;;;;5071169;28;20021;-63
2021/04/21 03:53:34;;;;;;;49.58;26.27;;;;;;;;;;5072381;28;20024;-63
2021/04/21 03:56:00;;;;;;;41.80;23.65;;;;;;;;;;5072682;28;20110;-63
2021/04/21 03:58:26;;;;;;;34.97;21.35;;;;;;;;;;5072897;28;20473;-62
2021/04/21 04:00:56;;;;;;;42.67;22.95;;;;;;;;;;5073025;28;20021;-63
2021/04/21 04:03:23;;;;;;;44.78;22.63;;;;;;;;;;5073407;28;20372;-63
2021/04/21 04:05:53;;;;;;;42.83;23.20;;;;;;;;;;5072274;28;20097;-63
2021/04/21 04:08:19;;;;;;;;;;;;;;;;;;5073052;28;20449;-63
2021/04/21 04:10:47;;;;;;;42.83;24.65;;;;;;;;;;5072291;28;20387;-63
2021/04/21 04:13:13;;;;;;;48.58;28.88;;;;;;;;;;5072576;28;20457;-63
2021/04/21 04:15:39;;;;;;;44.35;25.52;;;;;;;;;;5072400;28;20042;-63
2021/04/21 04:18:05;;;;;;;46.17;24.23;;;;;;;;;;5062656;28;20499;-63
2021/04/21 04:20:32;;;;;;;49.35;25.15;;;;;;;;;;5071905;28;20017;-62
2021/04/21 04:23:02;;;;;;;42.03;24.73;;;;;;;;;;5072398;28;20123;-62
2021/04/21 04:25:29;;;;;;;45.83;25.25;;;;;;;;;;5073029;28;20111;-63
2021/04/21 04:27:55;;;;;;;43.30;23.80;;;;;;;;;;5070640;28;20106;-62
2021/04/21 04:30:22;;;;;;;40.63;23.30;;;;;;;;;;5072680;28;20029;-62
2021/04/21 04:32:48;;;;;;;42.97;23.88;;;;;;;;;;5071310;28;20028;-62
2021/04/21 04:35:13;;;;;;;50.22;23.15;;;;;;;;;;5071754;28;20016;-63
2021/04/21 04:37:39;;;;;;;41.53;23.55;;;;;;;;;;5069809;28;20013;-62
2021/04/21 04:40:10;;;;;;;45.28;25.63;;;;;;;;;;5065871;28;20020;-63
2021/04/21 04:42:36;;;;;;;45.53;24.85;;;;;;;;;;5070981;28;20021;-62
2021/04/21 04:45:01;;;;;;;50.22;26.27;;;;;;;;;;5072405;28;20416;-62
2021/04/21 04:47:32;;;;;;;51.53;26.65;;;;;;;;;;5071871;28;20035;-62
2021/04/21 04:50:05;;;;;;;54.88;28.73;;;;;;;;;;5071751;28;20030;-62
2021/04/21 04:52:35;;;;;;;57.20;29.48;;;;;;;;;;5071073;28;20024;-62
2021/04/21 04:55:01;;;;;;;56.50;31.58;;;;;;;;;;5064398;28;20406;-63
2021/04/21 04:57:30;;;;;;;63.40;30.38;;;;;;;;;;5072239;28;20032;-63
2021/04/21 05:00:05;;;;;;;52.90;27.13;;;;;;;;;;5070517;28;20522;-63
2021/04/21 05:02:32;;;;;;;64.07;32.67;;;;;;;;;;5062868;28;20025;-63
2021/04/21 05:04:58;;;;;;;63.60;31.52;;;;;;;;;;5052218;28;20039;-62
2021/04/21 05:07:24;;;;;;;62.47;32.55;;;;;;;;;;5070341;28;20028;-62
2021/04/21 05:09:51;;;;;;;69.13;30.10;;;;;;;;;;5070938;28;20047;-62
2021/04/21 05:12:16;;;;;;;58.60;31.60;;;;;;;;;;5071794;28;20031;-63
2021/04/21 05:14:46;;;;;;;69.38;33.97;;;;;;;;;;5074129;28;20461;-63
2021/04/21 05:17:30;;;;;;;57.15;30.67;;;;;;;;;;5069179;28;20021;-63
2021/04/21 05:20:13;;;;;;;61.42;32.47;;;;;;;;;;5068600;28;20043;-62
2021/04/21 05:22:39;;;;;;;69.03;35.72;;;;;;;;;;5068697;28;20029;-63
2021/04/21 05:25:07;;;;;;;71.63;38.55;;;;;;;;;;5068142;28;20030;-63
2021/04/21 05:27:51;;;;;;;64.68;37.08;;;;;;;;;;5068853;28;20098;-63
2021/04/21 05:30:34;;;;;;;73.43;39.28;;;;;;;;;;5065931;28;20040;-63
2021/04/21 05:33:00;;;;;;;76.40;37.58;;;;;;;;;;5066484;28;20029;-63
2021/04/21 05:35:44;;;;;;;67.22;37.80;;;;;;;;;;5068285;28;20302;-63
2021/04/21 05:38:18;;;;;;;48.42;28.10;;;;;;;;;;5068534;28;20667;-63
2021/04/21 05:41:06;;;;;;;53.67;29.60;;;;;;;;;;5060861;28;20399;-63
2021/04/21 05:43:46;;;;;;;55.20;29.40;;;;;;;;;;5066884;28;20052;-63
2021/04/21 05:46:17;;;;;;;55.58;30.65;;;;;;;;;;5073233;28;20465;-63
2021/04/21 05:48:52;;;;;;;56.42;32.42;;;;;;;;;;5067265;28;20435;-62
2021/04/21 05:51:26;;;;;;;70.05;34.58;;;;;;;;;;5070281;28;20035;-61
2021/04/21 05:54:14;;;;;;;71.75;36.13;;;;;;;;;;5070552;28;20024;-62
2021/04/21 05:57:00;;;;;;;69.13;35.83;;;;;;;;;;5035012;28;20036;-62
2021/04/21 05:59:31;;;;;;;78.38;38.95;;;;;;;;;;5068218;28;20025;-62
2021/04/21 06:01:56;;;;;;;75.68;40.53;;;;;;;;;;5066803;28;20012;-62
2021/04/21 06:04:23;;;;;;;80.80;38.47;;;;;;;;;;5070191;28;20031;-62
2021/04/21 06:06:49;;;;;;;84.35;38.47;;;;;;;;;;5066990;28;20028;-63
2021/04/21 06:09:14;;;;;;;85.80;39.70;;;;;;;;;;5070368;28;20110;-62
2021/04/21 06:11:39;;;;;;;85.28;45.47;;;;;;;;;;5069112;28;20326;-62
2021/04/21 06:14:06;;;;;;;78.85;39.85;;;;;;;;;;5069215;28;20024;-62
2021/04/21 06:16:32;;;;;;;83.50;42.63;;;;;;;;;;5068988;28;20519;-62
2021/04/21 06:18:58;;;;;;;84.28;40.65;;;;;;;;;;5070215;28;20540;-62
2021/04/21 06:21:24;;;;;;;81.25;43.17;;;;;;;;;;5069380;28;20050;-62
2021/04/21 06:23:51;;;;;;;86.07;41.13;;;;;;;;;;5091995;23;20130;-67
2021/04/21 06:26:21;;;;;;;77.63;42.95;;;;;;;;;;5074401;28;20024;-67
2021/04/21 06:28:57;;;;;;;80.32;42.47;;;;;;;;;;5069616;28;20017;-67
2021/04/21 06:31:29;;;;;;;88.53;43.70;;;;;;;;;;5068234;28;20054;-67
2021/04/21 06:33:55;;;;;;;78.53;42.25;;;;;;;;;;5069830;28;20483;-67
2021/04/21 06:36:20;;;;;;;80.38;41.97;;;;;;;;;;5065777;28;20067;-67
2021/04/21 06:38:45;;;;;;;77.23;40.90;;;;;;;;;;5062480;28;20027;-68
2021/04/21 06:41:11;;;;;;;83.10;44.38;;;;;;;;;;5070030;28;20258;-67
2021/04/21 06:43:37;;;;;;;84.82;45.45;;;;;;;;;;5068293;28;20016;-67
2021/04/21 06:46:02;;;;;;;87.50;45.20;;;;;;;;;;5069398;28;20472;-67
2021/04/21 06:48:29;;;;;;;82.97;43.85;;;;;;;;;;5068222;28;20034;-68
2021/04/21 06:50:54;;;;;;;81.43;43.42;;;;;;;;;;5059671;28;20032;-66
2021/04/21 06:53:27;;;;;;;80.95;43.17;;;;;;;;;;5069020;28;20392;-68
2021/04/21 06:55:54;;;;;;;78.35;41.78;;;;;;;;;;5069810;28;20027;-67
2021/04/21 06:58:19;;;;;;;80.65;41.25;;;;;;;;;;5069474;28;20035;-67
2021/04/21 07:00:45;;;;;;;83.93;43.83;;;;;;;;;;5069469;28;20083;-66
2021/04/21 07:03:15;;;;;;;82.70;44.38;;;;;;;;;;5057564;28;20119;-66
2021/04/21 07:05:42;;;;;;;86.10;48.00;;;;;;;;;;5069268;28;20099;-66
2021/04/21 07:08:14;;;;;;;88.85;48.08;;;;;;;;;;5070210;28;20449;-67
2021/04/21 07:10:42;;;;;;;83.78;43.03;;;;;;;;;;5069147;28;20020;-68
2021/04/21 07:13:10;;;;;;;82.35;43.88;;;;;;;;;;5065671;28;20439;-67
2021/04/21 07:15:37;;;;;;;84.07;42.30;;;;;;;;;;5066476;28;20020;-67
2021/04/21 07:18:02;;;;;;;85.88;44.75;;;;;;;;;;5060623;28;20369;-67
2021/04/21 07:20:28;;;;;;;81.18;45.58;;;;;;;;;;5069597;28;20016;-67
2021/04/21 07:22:53;;;;;;;79.70;42.55;;;;;;;;;;5056997;28;20024;-65
2021/04/21 07:25:19;;;;;;;79.68;41.05;;;;;;;;;;5062883;28;20056;-68
2021/04/21 07:27:48;;;;;;;74.95;39.03;;;;;;;;;;5060222;28;20028;-67
2021/04/21 07:30:13;;;;;;;80.60;42.17;;;;;;;;;;5063622;28;20082;-67
2021/04/21 07:32:42;;;;;;;74.53;40.78;;;;;;;;;;5060065;28;20029;-67
2021/04/21 07:35:08;;;;;;;78.72;40.65;;;;;;;;;;5061324;28;20017;-66
2021/04/21 07:37:34;;;;;;;85.85;39.15;;;;;;;;;;5064672;28;20056;-67
2021/04/21 07:40:00;;;;;;;76.75;42.13;;;;;;;;;;5060542;28;20100;-67
2021/04/21 07:42:25;;;;;;;83.28;45.25;;;;;;;;;;5067573;28;20096;-67
2021/04/21 07:44:52;;;;;;;73.45;37.20;;;;;;;;;;5058174;28;20166;-67
2021/04/21 07:47:18;;;;;;;77.82;35.63;;;;;;;;;;5061073;28;20082;-67
2021/04/21 07:49:45;;;;;;;79.70;42.95;;;;;;;;;;5063650;28;20024;-66
2021/04/21 07:52:20;;;;;;;72.78;39.22;;;;;;;;;;5060515;28;20071;-67
2021/04/21 07:54:45;;;;;;;68.30;42.17;;;;;;;;;;5058361;28;20028;-67
2021/04/21 07:57:15;;;;;;;71.53;41.07;;;;;;;;;;5064034;28;20029;-66
2021/04/21 07:59:41;;;;;;;72.07;40.72;;;;;;;;;;5068449;28;20766;-67
2021/04/21 08:02:09;;;;;;;67.95;41.05;;;;;;;;;;5060089;28;20025;-67
2021/04/21 08:04:44;;;;;;;67.93;39.30;;;;;;;;;;5067514;28;20020;-67
2021/04/21 08:07:09;;;;;;;69.90;42.20;;;;;;;;;;5068230;28;20484;-67
2021/04/21 08:09:35;;;;;;;64.65;40.85;;;;;;;;;;5056394;28;20032;-65
2021/04/21 08:12:12;;;;;;;63.83;35.20;;;;;;;;;;5067050;28;20021;-67
2021/04/21 08:14:38;;;;;;;69.55;40.92;;;;;;;;;;5069258;28;20043;-64
2021/04/21 08:17:03;;;;;;;61.97;40.40;;;;;;;;;;5067794;28;20013;-67
2021/04/21 08:19:34;;;;;;;67.07;37.00;;;;;;;;;;5071931;28;20023;-67
2021/04/21 08:21:59;;;;;;;67.70;41.35;;;;;;;;;;5072697;28;20102;-67
2021/04/21 08:24:24;;;;;;;69.93;43.25;;;;;;;;;;5071541;28;20068;-67
2021/04/21 08:26:52;;;;;;;80.40;42.80;;;;;;;;;;5072333;28;20098;-66
2021/04/21 08:29:17;;;;;;;60.30;36.00;;;;;;;;;;5071592;28;20281;-66
2021/04/21 08:31:45;;;;;;;76.95;42.35;;;;;;;;;;5071044;28;20033;-67
2021/04/21 08:34:11;;;;;;;73.45;35.78;;;;;;;;;;5065968;28;20021;-67
2021/04/21 08:36:36;;;;;;;86.32;44.10;;;;;;;;;;5064752;28;20027;-67
2021/04/21 08:39:01;;;;;;;78.50;47.33;;;;;;;;;;5071922;28;20013;-66
2021/04/21 08:41:27;;;;;;;70.15;43.72;;;;;;;;;;5072348;28;20065;-65
2021/04/21 08:43:52;;;;;;;76.72;43.63;;;;;;;;;;5071859;28;20094;-66
2021/04/21 08:46:18;;;;;;;78.55;46.97;;;;;;;;;;5070434;28;20020;-65
2021/04/21 08:48:44;;;;;;;73.03;44.72;;;;;;;;;;5070673;28;20017;-64
2021/04/21 08:51:14;;;;;;;75.13;44.58;;;;;;;;;;5072182;28;20056;-66
2021/04/21 08:53:40;;;;;;;76.20;35.63;;;;;;;;;;5072234;28;20100;-65
2021/04/21 08:56:05;;;;;;;78.25;46.15;;;;;;;;;;5065235;28;20545;-66
2021/04/21 08:58:31;;;;;;;77.03;43.22;;;;;;;;;;5064812;28;20016;-65
2021/04/21 09:00:57;;;;;;;84.72;46.28;;;;;;;;;;5070714;28;20021;-66
2021/04/21 09:03:22;;;;;;;84.82;43.70;;;;;;;;;;5070852;28;20050;-66
2021/04/21 09:05:47;;;;;;;72.57;43.28;;;;;;;;;;5071811;28;20016;-68
2021/04/21 09:08:13;;;;;;;82.13;47.17;;;;;;;;;;5071712;28;20471;-65
2021/04/21 09:10:39;;;;;;;73.85;44.85;;;;;;;;;;5071683;28;20024;-68
2021/04/21 09:13:04;;;;;;;82.47;46.38;;;;;;;;;;5055114;28;20100;-68
2021/04/21 09:15:29;;;;;;;73.22;44.50;;;;;;;;;;5070378;28;20488;-67
2021/04/21 09:17:57;;;;;;;89.65;46.83;;;;;;;;;;5070634;28;20028;-66
2021/04/21 09:20:24;;;;;;;74.38;40.78;;;;;;;;;;5070995;28;20017;-67
2021/04/21 09:22:59;;;;;;;79.25;48.88;;;;;;;;;;5065843;28;20166;-68
2021/04/21 09:25:24;;;;;;;81.90;48.10;;;;;;;;;;5067576;28;20105;-69
2021/04/21 09:27:55;;;;;;;70.37;43.47;;;;;;;;;;5069554;28;20465;-68
2021/04/21 09:30:21;;;;;;;69.57;41.55;;;;;;;;;;5069260;28;20263;-65
2021/04/21 09:32:52;;;;;;;70.72;39.10;;;;;;;;;;5070546;28;20158;-67
2021/04/21 09:35:28;;;;;;;75.28;42.13;;;;;;;;;;5061277;28;20025;-66
2021/04/21 09:37:54;;;;;;;72.78;39.72;;;;;;;;;;5066053;28;20070;-65
2021/04/21 09:40:33;;;;;;;69.68;41.97;;;;;;;;;;5064473;28;20477;-65
2021/04/21 09:42:58;;;;;;;79.25;38.58;;;;;;;;;;5067871;28;20506;-74
2021/04/21 09:45:50;;;;;;;69.22;40.72;;;;;;;;;;5068014;28;20174;-65
2021/04/21 09:48:22;;;;;;;72.57;41.38;;;;;;;;;;5065318;28;20037;-67
2021/04/21 09:51:05;;;;;;;73.75;40.08;;;;;;;;;;5070210;28;20044;-66
2021/04/21 09:53:33;;;;;;;70.63;40.38;;;;;;;;;;5069853;28;20029;-67
2021/04/21 09:56:02;;;;;;;73.53;40.75;;;;;;;;;;5069755;28;20043;-65
2021/04/21 09:58:27;;;;;;;67.60;43.90;;;;;;;;;;5069068;28;20377;-66
2021/04/21 10:00:52;;;;;;;63.70;41.13;;;;;;;;;;5069879;28;20258;-66
2021/04/21 10:03:18;;;;;;;69.63;37.83;;;;;;;;;;5068903;28;20250;-66
2021/04/21 10:05:43;;;;;;;66.40;41.70;;;;;;;;;;5070292;28;20908;-66
2021/04/21 10:08:14;;;;;;;82.67;48.70;;;;;;;;;;5069476;28;20040;-66
2021/04/21 10:10:40;;;;;;;72.15;44.42;;;;;;;;;;5069226;28;20360;-66
2021/04/21 10:13:19;;;;;;;71.47;42.80;;;;;;;;;;5069998;28;20480;-66
2021/04/21 10:15:45;;;;;;;77.15;44.45;;;;;;;;;;5069651;28;20032;-66
2021/04/21 10:18:12;;;;;;;74.40;41.60;;;;;;;;;;5069516;28;20020;-66
2021/04/21 10:20:37;;;;;;;75.57;44.08;;;;;;;;;;5071066;28;20347;-66
2021/04/21 10:23:04;;;;;;;73.30;43.27;;;;;;;;;;5055083;28;20143;-66
2021/04/21 10:25:30;;;;;;;65.75;40.03;;;;;;;;;;5069566;28;20271;-66
2021/04/21 10:27:55;;;;;;;66.05;40.15;;;;;;;;;;5069602;28;20031;-66
2021/04/21 10:30:21;;;;;;;72.82;43.53;;;;;;;;;;5069076;28;20444;-66
2021/04/21 10:32:46;;;;;;;74.00;41.50;;;;;;;;;;5069121;28;20082;-66
2021/04/21 10:35:12;;;;;;;68.13;41.83;;;;;;;;;;5068308;28;20012;-66
2021/04/21 10:37:38;;;;;;;75.80;40.90;;;;;;;;;;5067952;28;20024;-66
2021/04/21 10:40:03;;;;;;;70.50;43.03;;;;;;;;;;5058301;28;20078;-66
2021/04/21 10:42:29;;;;;;;74.00;40.78;;;;;;;;;;5067870;28;20479;-66
2021/04/21 10:45:12;;;;;;;77.13;44.37;;;;;;;;;;5068576;28;20025;-67
2021/04/21 10:47:45;;;;;;;71.10;41.10;;;;;;;;;;5068785;28;20274;-68
2021/04/21 10:50:10;;;;;;;67.75;40.28;;;;;;;;;;5066747;28;20413;-66
2021/04/21 10:52:37;;;;;;;69.82;41.38;;;;;;;;;;5067044;28;20060;-65
2021/04/21 10:55:08;;;;;;;66.13;43.55;;;;;;;;;;5069226;28;20027;-66
2021/04/21 10:57:35;;;;;;;72.13;41.90;;;;;;;;;;5062142;28;20017;-66
2021/04/21 11:00:03;;;;;;;66.60;40.28;;;;;;;;;;5063042;28;20082;-65
2021/04/21 11:02:43;;;;;;;60.78;38.55;;;;;;;;;;5068807;28;20029;-66
2021/04/21 11:05:10;;;;;;;59.80;36.63;;;;;;;;;;5064755;28;20032;-68
2021/04/21 11:07:36;;;;;;;59.30;30.58;;;;;;;;;;5057428;28;20082;-68
2021/04/21 11:10:02;;;;;;;73.95;40.50;;;;;;;;;;5064776;28;20447;-66
2021/04/21 11:12:46;;;;;;;65.60;40.45;;;;;;;;;;5062155;28;20040;-66
2021/04/21 11:15:11;;;;;;;62.17;39.10;;;;;;;;;;5069135;28;20393;-66
2021/04/21 11:17:55;;;;;;;66.68;39.40;;;;;;;;;;5068762;28;20120;-68
2021/04/21 11:20:39;;;;;;;70.55;39.33;;;;;;;;;;5065873;28;20017;-66
2021/04/21 11:23:04;;;;;;;64.28;32.63;;;;;;;;;;5065305;28;20025;-66
2021/04/21 11:25:30;;;;;;;64.00;39.63;;;;;;;;;;5067620;28;20027;-66
2021/04/21 11:27:56;;;;;;;54.63;35.28;;;;;;;;;;5068571;28;20259;-67
2021/04/21 11:30:36;;;;;;;63.40;28.65;;;;;;;;;;5068787;28;20039;-66
2021/04/21 11:33:01;;;;;;;;;;;;;;;;;;5069338;28;20027;-66
2021/04/21 11:35:27;;;;;;;56.38;33.97;;;;;;;;;;5067404;28;19913;-66
2021/04/21 11:37:52;;;;;;;50.90;33.70;;;;;;;;;;5067994;28;20174;-67
2021/04/21 11:40:28;;;;;;;62.53;35.00;;;;;;;;;;5068552;28;20556;-66
2021/04/21 11:42:53;;;;;;;61.20;32.13;;;;;;;;;;5067814;28;20274;-66
2021/04/21 11:45:29;;;;;;;45.55;31.08;;;;;;;;;;5067488;28;20035;-67
2021/04/21 11:47:54;;;;;;;45.17;30.20;;;;;;;;;;5068193;28;20062;-66
2021/04/21 11:50:21;;;;;;;52.70;31.37;;;;;;;;;;5067845;28;20027;-66
2021/04/21 11:52:53;;;;;;;47.58;31.88;;;;;;;;;;5067580;28;20275;-66
2021/04/21 11:55:19;;;;;;;47.90;29.95;;;;;;;;;;5069469;28;20016;-68
2021/04/21 11:57:49;;;;;;;49.90;28.87;;;;;;;;;;5072577;28;20031;-67
2021/04/21 12:00:15;;;;;;;51.55;25.90;;;;;;;;;;5069793;28;20715;-66
2021/04/21 12:02:40;;;;;;;45.63;26.52;;;;;;;;;;5072692;28;20119;-66
2021/04/21 12:05:05;;;;;;;52.80;26.90;;;;;;;;;;5066739;28;20021;-67
2021/04/21 12:07:31;;;;;;;47.70;26.38;;;;;;;;;;5066518;28;20059;-66
2021/04/21 12:09:58;;;;;;;46.83;27.50;;;;;;;;;;5068212;28;20082;-67
2021/04/21 12:12:24;;;;;;;36.53;21.45;;;;;;;;;;5072779;28;20029;-66
2021/04/21 12:15:06;;;;;;;31.77;19.17;;;;;;;;;;5070314;28;20472;-68
2021/04/21 12:17:31;;;;;;;28.80;18.63;;;;;;;;;;5072117;28;20063;-66
2021/04/21 12:19:59;;;;;;;27.23;18.20;;;;;;;;;;5061547;28;20048;-66
2021/04/21 12:25:13;;;;;;;37.75;21.25;;;;;;;;;;5065499;28;20532;-63
2021/04/21 12:27:38;;;;;;;43.80;20.10;;;;;;;;;;5071276;28;20062;-63
2021/04/21 12:30:13;;;;;;;26.03;17.43;;;;;;;;;;5071194;28;20461;-65
2021/04/21 12:32:39;;;;;;;37.08;19.33;;;;;;;;;;5071463;28;20315;-63
2021/04/21 12:35:06;;;;;;;34.13;18.30;;;;;;;;;;5070555;28;20464;-62
2021/04/21 12:37:31;;;;;;;37.45;19.63;;;;;;;;;;5066800;28;20134;-65
2021/04/21 12:39:56;;;;;;;35.97;18.90;;;;;;;;;;5069231;28;20017;-65
2021/04/21 12:42:21;;;;;;;36.07;18.17;;;;;;;;;;5066972;28;20033;-65
2021/04/21 12:44:47;;;;;;;38.03;20.27;;;;;;;;;;5063388;28;20269;-64
2021/04/21 12:47:12;;;;;;;32.67;20.17;;;;;;;;;;5071231;28;20413;-66
2021/04/21 12:49:40;;;;;;;28.73;16.50;;;;;;;;;;5066935;28;20059;-62
2021/04/21 12:52:07;;;;;;;24.05;15.65;;;;;;;;;;5068892;28;20020;-62
2021/04/21 12:54:35;;;;;;;29.85;16.23;;;;;;;;;;5061454;28;20047;-64
2021/04/21 12:57:01;;;;;;;23.67;15.98;;;;;;;;;;5070114;28;20020;-64
2021/04/21 12:59:26;;;;;;;24.88;15.02;;;;;;;;;;5069689;28;20078;-64
2021/04/21 13:01:51;;;;;;;34.07;15.53;;;;;;;;;;5070139;28;20029;-64
2021/04/21 13:04:17;;;;;;;24.75;16.45;;;;;;;;;;5068891;28;20267;-66
2021/04/21 13:06:51;;;;;;;25.38;15.88;;;;;;;;;;5071167;28;20021;-64
2021/04/21 13:09:21;;;;;;;21.00;15.45;;;;;;;;;;5070396;28;20024;-64
2021/04/21 13:11:47;;;;;;;25.65;15.35;;;;;;;;;;5071317;28;20039;-64
2021/04/21 13:14:12;;;;;;;27.23;15.10;;;;;;;;;;5068002;28;20024;-63
2021/04/21 13:16:39;;;;;;;27.58;14.80;;;;;;;;;;5070896;28;20422;-68
2021/04/21 13:19:17;;;;;;;25.88;14.98;;;;;;;;;;5069644;28;20012;-65
2021/04/21 13:21:42;;;;;;;26.50;15.75;;;;;;;;;;5071229;28;20066;-64
2021/04/21 13:24:08;;;;;;;23.92;14.93;;;;;;;;;;5063029;28;20029;-67
2021/04/21 13:26:33;;;;;;;27.67;15.70;;;;;;;;;;5067385;28;20025;-64
2021/04/21 13:29:01;;;;;;;23.07;13.93;;;;;;;;;;5061423;28;20090;-64
2021/04/21 13:31:29;;;;;;;26.48;14.98;;;;;;;;;;5061773;28;20267;-64
2021/04/21 13:33:54;;;;;;;24.80;16.63;;;;;;;;;;5061158;28;20107;-63
2021/04/21 13:36:20;;;;;;;30.85;21.15;;;;;;;;;;5067385;28;20585;-63
2021/04/21 13:38:46;;;;;;;24.85;17.75;;;;;;;;;;5069649;28;20024;-63
2021/04/21 13:41:12;;;;;;;28.88;15.95;;;;;;;;;;5069872;28;20048;-63
2021/04/21 13:43:37;;;;;;;20.98;13.18;;;;;;;;;;5051546;28;20397;-64
2021/04/21 13:46:03;;;;;;;25.33;13.65;;;;;;;;;;5069798;28;20055;-63
2021/04/21 13:48:30;;;;;;;21.67;13.25;;;;;;;;;;5069795;28;20025;-64
2021/04/21 13:50:55;;;;;;;27.50;13.85;;;;;;;;;;5069641;28;20385;-64
2021/04/21 13:53:21;;;;;;;21.30;12.38;;;;;;;;;;5069630;28;20033;-64
2021/04/21 13:55:46;;;;;;;24.10;13.70;;;;;;;;;;5069217;28;20021;-64
2021/04/21 13:58:11;;;;;;;38.03;14.73;;;;;;;;;;5069523;28;20028;-63
2021/04/21 14:00:37;;;;;;;25.70;14.43;;;;;;;;;;5060899;28;20229;-64
2021/04/21 14:03:04;;;;;;;23.60;13.88;;;;;;;;;;5063890;28;20024;-63
2021/04/21 14:05:30;;;;;;;24.00;14.13;;;;;;;;;;5064802;28;20020;-64
2021/04/21 14:07:55;;;;;;;36.50;15.43;;;;;;;;;;5070141;28;20423;-64
2021/04/21 14:10:21;;;;;;;24.10;15.37;;;;;;;;;;5058443;28;20052;-64
2021/04/21 14:12:48;;;;;;;30.02;14.95;;;;;;;;;;5064775;28;20310;-64
2021/04/21 14:15:14;;;;;;;26.90;15.43;;;;;;;;;;5057554;28;20423;-64
2021/04/21 14:17:39;;;;;;;28.92;17.92;;;;;;;;;;5067714;28;20066;-65
2021/04/21 14:20:06;;;;;;;33.30;17.90;;;;;;;;;;5070122;28;20022;-64
2021/04/21 14:22:32;;;;;;;30.25;17.33;;;;;;;;;;5070850;28;20027;-64
2021/04/21 14:24:58;;;;;;;27.75;17.25;;;;;;;;;;5069816;28;20401;-64
2021/04/21 14:27:23;;;;;;;25.92;16.75;;;;;;;;;;5069847;28;20272;-66
2021/04/21 14:29:48;;;;;;;36.53;19.88;;;;;;;;;;5070207;28;20107;-65